createdAt,value
2019-04-27T00:00:01.197Z,49.0
2019-04-27T00:05:01.088Z,48.8
2019-04-27T00:10:01.016Z,48.8
2019-04-27T00:15:01.058Z,47.6
2019-04-27T00:20:00.998Z,47.3
2019-04-27T00:25:03.105Z,47.2
2019-04-27T00:30:01.001Z,46.3
2019-04-27T00:35:03.425Z,46.0
2019-04-27T00:40:06.022Z,46.0
2019-04-27T00:45:06.103Z,46.4
2019-04-27T00:50:01.037Z,46.4
2019-04-27T00:55:02.963Z,47.0
2019-04-27T01:00:01.023Z,47.0
2019-04-27T01:05:01.121Z,47.9
2019-04-27T01:10:02.955Z,48.2
2019-04-27T01:15:06.105Z,48.4
2019-04-27T01:20:01.065Z,48.3
2019-04-27T01:25:01.133Z,49.0
2019-04-27T01:30:01.081Z,49.6
2019-04-27T01:35:01.044Z,50.0
2019-04-27T01:40:01.084Z,51.1
2019-04-27T01:45:01.205Z,52.5
2019-04-27T01:50:01.068Z,51.4
2019-04-27T02:00:01.121Z,51.6
2019-04-27T02:05:02.086Z,50.4
2019-04-27T02:10:01.082Z,49.1
2019-04-27T02:15:01.134Z,49.8
2019-04-27T02:20:01.066Z,49.2
2019-04-27T02:25:01.197Z,48.6
2019-04-27T02:30:01.071Z,48.8
2019-04-27T02:35:01.233Z,48.9
2019-04-27T02:45:01.140Z,48.7
2019-04-27T02:50:01.104Z,48.0
2019-04-27T02:55:01.298Z,47.3
2019-04-27T03:05:01.231Z,46.2
2019-04-27T03:10:02.924Z,45.6
2019-04-27T03:20:01.115Z,45.3
2019-04-27T03:25:01.222Z,44.9
2019-04-27T03:30:01.120Z,44.8
2019-04-27T03:35:03.682Z,44.3
2019-04-27T03:40:02.539Z,43.5
2019-04-27T03:45:01.465Z,43.5
2019-04-27T03:50:01.113Z,43.8
2019-04-27T04:05:01.191Z,46.1
2019-04-27T04:10:01.125Z,46.4
2019-04-27T04:20:02.987Z,46.3
2019-04-27T04:35:01.662Z,46.9
2019-04-27T04:50:15.312Z,50.6
2019-04-27T04:55:03.033Z,49.5
2019-04-27T05:00:00.494Z,48.3
2019-04-27T05:05:00.512Z,48.3
2019-04-27T05:10:00.543Z,49.4
2019-04-27T05:20:00.446Z,50.8
2019-04-27T05:25:05.611Z,52.2
2019-04-27T05:30:00.615Z,53.6
2019-04-27T05:35:00.549Z,53.4
2019-04-27T05:40:01.573Z,53.7
2019-04-27T05:45:00.493Z,53.9
2019-04-27T05:50:00.572Z,53.7
2019-04-27T05:55:01.015Z,53.6
2019-04-27T06:00:02.813Z,53.9
2019-04-27T06:05:01.576Z,54.0
2019-04-27T06:10:01.255Z,53.8
2019-04-27T06:15:00.504Z,53.4
2019-04-27T06:20:00.488Z,52.6
2019-04-27T06:25:05.816Z,52.3
2019-04-27T06:30:00.504Z,51.8
2019-04-27T06:35:00.753Z,49.8
2019-04-27T06:40:00.584Z,50.0
2019-04-27T06:45:00.539Z,49.6
2019-04-27T06:50:00.459Z,49.2
2019-04-27T06:55:07.092Z,49.0
2019-04-27T07:00:00.458Z,50.4
2019-04-27T07:05:00.548Z,50.1
2019-04-27T07:10:00.421Z,50.5
2019-04-27T07:20:02.264Z,51.6
2019-04-27T07:30:01.972Z,52.3
2019-04-27T07:35:00.749Z,52.3
2019-04-27T07:40:00.436Z,51.5
2019-04-27T07:45:00.854Z,50.4
2019-04-27T07:50:01.791Z,49.9
2019-04-27T07:55:00.516Z,48.8
2019-04-27T08:00:00.484Z,48.2
2019-04-27T08:05:00.573Z,48.4
2019-04-27T08:10:03.042Z,49.1
2019-04-27T08:20:01.208Z,49.7
2019-04-27T08:25:00.466Z,49.8
2019-04-27T08:30:00.486Z,50.0
2019-04-27T08:35:05.528Z,50.2
2019-04-27T08:40:00.444Z,51.0
2019-04-27T08:50:00.445Z,52.7
2019-04-27T08:55:00.549Z,52.6
2019-04-27T09:00:00.421Z,52.2
2019-04-27T09:05:00.468Z,51.8
2019-04-27T09:10:00.659Z,50.8
2019-04-27T09:15:00.471Z,50.3
2019-04-27T09:20:01.490Z,49.6
2019-04-27T09:25:00.754Z,49.3
2019-04-27T09:30:00.734Z,48.1
2019-04-27T09:35:00.465Z,46.2
2019-04-27T09:40:00.473Z,44.5
2019-04-27T09:45:00.475Z,43.4
2019-04-27T09:50:02.571Z,41.6
2019-04-27T09:55:00.479Z,41.4
2019-04-27T10:00:00.506Z,41.7
2019-04-27T10:05:00.493Z,40.7
2019-04-27T10:10:06.498Z,39.8
2019-04-27T10:15:00.488Z,39.1
2019-04-27T10:20:01.911Z,37.4
2019-04-27T10:25:00.464Z,35.7
2019-04-27T10:30:00.620Z,34.9
2019-04-27T10:35:00.456Z,33.6
2019-04-27T10:40:00.488Z,32.9
2019-04-27T10:45:03.011Z,31.0
2019-04-27T10:50:00.504Z,29.8
2019-04-27T10:55:00.509Z,29.3
2019-04-27T11:05:00.562Z,27.8
2019-04-27T11:10:00.446Z,28.4
2019-04-27T11:15:00.572Z,28.9
2019-04-27T11:20:03.003Z,28.6
2019-04-27T11:25:00.619Z,28.2
2019-04-27T11:30:00.925Z,28.5
2019-04-27T11:35:00.616Z,28.8
2019-04-27T11:40:00.490Z,28.9
2019-04-27T11:45:00.583Z,28.5
2019-04-27T11:50:00.804Z,28.6
2019-04-27T11:55:00.722Z,27.4
2019-04-27T12:00:01.175Z,26.9
2019-04-27T12:05:00.636Z,25.8
2019-04-27T12:10:00.502Z,25.0
2019-04-27T12:15:00.574Z,25.1
2019-04-27T12:20:00.506Z,26.5
2019-04-27T12:25:00.639Z,26.4
2019-04-27T12:30:00.633Z,26.8
2019-04-27T12:40:00.580Z,26.8
2019-04-27T12:45:00.556Z,25.3
2019-04-27T12:50:01.062Z,24.6
2019-04-27T12:55:00.683Z,24.3
2019-04-27T13:00:00.560Z,23.8
2019-04-27T13:05:00.621Z,23.7
2019-04-27T13:10:00.660Z,24.0
2019-04-27T13:15:00.656Z,23.3
2019-04-27T13:20:00.569Z,22.4
2019-04-27T13:25:00.744Z,21.8
2019-04-27T13:30:00.557Z,20.4
2019-04-27T13:35:00.670Z,19.5
2019-04-27T13:40:09.752Z,19.2
2019-04-27T13:45:00.608Z,18.3
2019-04-27T13:50:00.551Z,18.2
2019-04-27T13:55:00.611Z,18.0
2019-04-27T14:00:01.510Z,16.7
2019-04-27T14:05:00.655Z,16.5
2019-04-27T14:10:00.556Z,16.4
2019-04-27T14:15:00.640Z,15.6
2019-04-27T14:20:00.585Z,15.8
2019-04-27T14:25:00.685Z,16.0
2019-04-27T14:30:01.144Z,16.4
2019-04-27T14:35:00.820Z,17.0
2019-04-27T14:40:00.533Z,17.7
2019-04-27T14:45:00.799Z,18.3
2019-04-27T14:50:00.574Z,18.6
2019-04-27T14:55:00.729Z,19.6
2019-04-27T15:00:00.560Z,19.4
2019-04-27T15:05:00.729Z,18.7
2019-04-27T15:10:00.711Z,17.6
2019-04-27T15:15:01.708Z,19.0
2019-04-27T15:20:00.621Z,19.5
2019-04-27T15:25:15.653Z,21.7
2019-04-27T15:30:11.219Z,25.0
2019-04-27T15:35:08.196Z,27.9
2019-04-27T15:40:12.435Z,29.7
2019-04-27T15:45:00.661Z,30.4
2019-04-27T15:50:00.592Z,30.1
2019-04-27T15:55:08.359Z,27.6
2019-04-27T16:00:00.665Z,24.6
2019-04-27T16:05:00.732Z,21.9
2019-04-27T16:10:02.887Z,19.4
2019-04-27T16:15:00.740Z,16.8
2019-04-27T16:20:00.615Z,16.2
2019-04-27T16:25:03.676Z,16.1
2019-04-27T16:30:15.000Z,15.1
2019-04-27T16:40:00.680Z,14.2
2019-04-27T16:45:00.777Z,13.4
2019-04-27T16:50:01.008Z,12.9
2019-04-27T17:00:01.550Z,12.7
2019-04-27T17:05:00.637Z,14.2
2019-04-27T17:10:00.696Z,14.5
2019-04-27T17:15:01.142Z,15.1
2019-04-27T17:20:00.636Z,14.8
2019-04-27T17:30:01.993Z,14.0
2019-04-27T17:35:08.732Z,13.8
2019-04-27T17:40:01.128Z,13.7
2019-04-27T17:45:00.952Z,13.8
2019-04-27T17:50:00.681Z,13.7
2019-04-27T17:55:00.951Z,13.1
2019-04-27T18:00:03.827Z,13.5
2019-04-27T18:10:00.690Z,12.2
2019-04-27T18:15:00.810Z,11.8
2019-04-27T18:20:00.728Z,12.4
2019-04-27T18:25:09.041Z,11.9
2019-04-27T18:30:04.605Z,12.0
2019-04-27T18:40:00.770Z,12.2
2019-04-27T18:45:08.327Z,11.6
2019-04-27T18:50:14.791Z,12.9
2019-04-27T18:55:00.767Z,12.8
2019-04-27T19:00:00.712Z,13.3
2019-04-27T19:05:00.959Z,13.1
2019-04-27T19:10:00.721Z,13.3
2019-04-27T19:15:00.795Z,11.9
2019-04-27T19:20:05.737Z,12.2
2019-04-27T19:25:00.793Z,12.3
2019-04-27T19:30:00.727Z,13.6
2019-04-27T19:35:00.856Z,14.4
2019-04-27T19:40:00.729Z,15.1
2019-04-27T19:45:00.791Z,17.7
2019-04-27T19:50:00.708Z,19.2
2019-04-27T19:55:00.794Z,19.1
2019-04-27T20:00:00.727Z,19.2
2019-04-27T20:05:00.779Z,19.4
2019-04-27T20:10:01.315Z,18.2
2019-04-27T20:15:02.582Z,16.7
2019-04-27T20:20:00.731Z,16.2
2019-04-27T20:25:02.238Z,16.2
2019-04-27T20:30:03.354Z,16.0
2019-04-27T20:35:01.851Z,15.3
2019-04-27T20:40:02.028Z,15.2
2019-04-27T20:45:02.327Z,15.6
2019-04-27T20:50:00.754Z,16.0
2019-04-27T20:55:01.770Z,16.6
2019-04-27T21:00:02.346Z,16.2
2019-04-27T21:05:00.891Z,16.6
2019-04-27T21:10:00.736Z,16.9
2019-04-27T21:15:00.742Z,16.7
2019-04-27T21:20:00.747Z,16.8
2019-04-27T21:25:01.807Z,17.7
2019-04-27T21:30:03.028Z,18.2
2019-04-27T21:35:02.264Z,18.3
2019-04-27T21:40:02.229Z,19.6
2019-04-27T21:45:01.429Z,19.9
2019-04-27T21:50:01.049Z,20.6
2019-04-27T21:55:01.769Z,21.4
2019-04-27T22:00:01.039Z,22.0
2019-04-27T22:05:00.850Z,21.7
2019-04-27T22:10:02.223Z,22.2
2019-04-27T22:15:01.352Z,21.8
2019-04-27T22:20:01.876Z,22.0
2019-04-27T22:30:01.102Z,22.8
2019-04-27T22:35:01.173Z,23.4
2019-04-27T22:40:01.261Z,24.0
2019-04-27T22:45:01.520Z,25.0
2019-04-27T22:50:00.809Z,26.4
2019-04-27T22:55:01.908Z,26.8
2019-04-27T23:00:03.894Z,27.4
2019-04-27T23:05:02.473Z,28.2
2019-04-27T23:10:01.951Z,28.0
2019-04-27T23:15:00.974Z,27.0
2019-04-27T23:20:01.644Z,26.5
2019-04-27T23:25:01.351Z,26.6
2019-04-27T23:30:01.692Z,25.6
2019-04-27T23:35:00.904Z,25.2
2019-04-27T23:45:00.887Z,24.6
2019-04-27T23:50:01.181Z,23.5
2019-04-27T23:55:02.597Z,23.1
